Time;durP1;ratioP1;P1;durP2;ratioP2;P2;SDS_P1;SDS_P2;PMS_P1;PMS_P2;Temp;Humidity;BMP_temperature;BMP_pressure;BME280_temperature;BME280_humidity;BME280_pressure;Samples;Min_cycle;Max_cycle;Signal;HPM_P1;HPM_P2
2023/03/02 00:02:00;;;;;;;48.67;27.95;;;3.30;99.90;;;;;;5113375;28;20034;-93
2023/03/02 00:04:53;;;;;;;41.45;22.00;;;3.30;99.90;;;;;;5123052;27;20085;-93
2023/03/02 00:07:23;;;;;;;41.70;24.55;;;3.30;99.90;;;;;;5105927;28;20032;-92
2023/03/02 00:09:49;;;;;;;47.08;25.48;;;3.30;99.90;;;;;;5088395;28;20032;-94
2023/03/02 00:12:17;;;;;;;44.10;26.42;;;3.30;99.90;;;;;;5079936;27;20082;-94
2023/03/02 00:14:43;;;;;;;43.10;25.75;;;3.60;99.90;;;;;;5084857;28;20044;-92
2023/03/02 00:17:10;;;;;;;47.97;27.50;;;3.30;99.90;;;;;;5117740;27;20058;-93
2023/03/02 00:19:37;;;;;;;47.25;27.80;;;3.30;99.90;;;;;;5083877;28;20096;-92
2023/03/02 00:22:04;;;;;;;45.13;25.45;;;3.30;99.90;;;;;;5078902;28;20075;-92
2023/03/02 00:24:29;;;;;;;44.67;25.58;;;3.40;99.90;;;;;;5077080;28;20073;-93
2023/03/02 00:26:55;;;;;;;48.38;26.65;;;3.30;99.90;;;;;;5106567;27;20040;-92
2023/03/02 00:29:21;;;;;;;45.22;26.88;;;3.30;99.90;;;;;;5058149;28;20054;-92
2023/03/02 00:31:47;;;;;;;41.72;25.13;;;3.80;99.90;;;;;;5088634;28;20547;-92
2023/03/02 00:34:12;;;;;;;39.90;22.02;;;3.20;99.90;;;;;;5105094;28;20077;-93
2023/03/02 00:36:39;;;;;;;35.13;21.15;;;3.20;99.90;;;;;;5071567;28;20044;-93
2023/03/02 00:39:05;;;;;;;45.95;25.30;;;3.20;99.90;;;;;;5087888;28;20051;-90
2023/03/02 00:41:31;;;;;;;37.70;23.52;;;3.10;99.90;;;;;;5082063;28;20056;-91
2023/03/02 00:43:57;;;;;;;42.00;24.17;;;3.10;99.90;;;;;;5084839;28;20036;-91
2023/03/02 00:46:24;;;;;;;36.42;22.95;;;3.40;99.90;;;;;;5106611;28;20065;-92
2023/03/02 00:48:50;;;;;;;37.55;23.05;;;3.10;99.90;;;;;;5114439;28;20032;-92
2023/03/02 00:51:17;;;;;;;41.42;24.30;;;3.10;99.90;;;;;;5085144;28;20036;-91
2023/03/02 00:53:43;;;;;;;40.60;23.92;;;3.00;99.90;;;;;;5073576;27;20070;-92
2023/03/02 00:56:09;;;;;;;36.10;22.50;;;4.40;99.90;;;;;;5071745;27;20035;-92
2023/03/02 00:58:35;;;;;;;37.90;23.45;;;3.00;99.90;;;;;;5075438;28;20071;-96
2023/03/02 01:01:10;;;;;;;40.03;23.05;;;3.00;99.90;;;;;;5091258;28;20042;-93
2023/03/02 01:03:36;;;;;;;36.75;23.05;;;3.30;99.90;;;;;;5133146;28;20039;-93
2023/03/02 01:06:03;;;;;;;39.22;22.75;;;3.00;99.90;;;;;;5116734;28;20031;-91
2023/03/02 01:08:29;;;;;;;35.25;22.30;;;3.00;99.90;;;;;;5099087;28;20035;-94
2023/03/02 01:10:55;;;;;;;36.08;21.35;;;3.00;99.90;;;;;;5109301;28;20027;-94
2023/03/02 01:13:21;;;;;;;39.40;22.80;;;3.50;99.90;;;;;;5077741;28;20032;-91
2023/03/02 01:15:48;;;;;;;34.38;20.85;;;3.00;99.90;;;;;;5065062;28;20055;-92
2023/03/02 01:18:13;;;;;;;39.80;22.58;;;2.50;99.90;;;;;;5094958;28;20055;-91
2023/03/02 01:20:39;;;;;;;35.50;21.75;;;3.40;99.90;;;;;;5117979;27;20024;-91
2023/03/02 01:23:05;;;;;;;37.00;22.65;;;3.00;99.90;;;;;;5079136;27;20031;-92
2023/03/02 01:25:31;;;;;;;37.92;22.42;;;3.60;99.90;;;;;;5123690;28;20069;-89
2023/03/02 01:27:57;;;;;;;39.40;23.75;;;3.00;99.90;;;;;;5096423;28;20050;-93
2023/03/02 01:30:23;;;;;;;38.55;23.75;;;4.00;99.90;;;;;;5096609;28;20100;-93
2023/03/02 01:32:48;;;;;;;41.60;24.13;;;3.30;99.90;;;;;;5106867;28;20036;-92
2023/03/02 01:35:15;;;;;;;37.83;24.10;;;2.90;99.90;;;;;;5089535;28;20054;-93
2023/03/02 01:37:41;;;;;;;40.13;24.35;;;2.90;99.90;;;;;;5052480;28;20046;-91
2023/03/02 01:40:08;;;;;;;37.72;23.38;;;2.90;99.90;;;;;;5050379;28;20036;-92
2023/03/02 01:42:38;;;;;;;40.90;23.55;;;2.90;99.90;;;;;;5082928;28;20040;-92
2023/03/02 01:45:25;;;;;;;38.60;24.27;;;2.90;99.90;;;;;;5083899;28;20122;-92
2023/03/02 01:47:51;;;;;;;40.75;24.30;;;2.90;99.90;;;;;;5087153;28;20039;-92
2023/03/02 01:50:20;;;;;;;42.92;25.58;;;3.20;99.90;;;;;;5053611;28;20031;-94
2023/03/02 01:52:48;;;;;;;43.80;24.75;;;3.50;99.90;;;;;;5087129;28;20046;-94
2023/03/02 01:55:16;;;;;;;40.10;23.90;;;2.80;99.90;;;;;;5086851;28;20043;-92
2023/03/02 01:57:46;;;;;;;41.17;24.42;;;2.90;99.90;;;;;;5088697;28;20072;-92
2023/03/02 02:00:18;;;;;;;43.00;24.67;;;3.30;99.90;;;;;;5088702;28;20124;-91
2023/03/02 02:02:44;;;;;;;43.00;24.25;;;2.90;99.90;;;;;;5087513;28;20075;-93
2023/03/02 02:05:13;;;;;;;43.50;24.90;;;2.90;99.90;;;;;;5102364;28;20104;-92
2023/03/02 02:07:45;;;;;;;39.63;24.45;;;2.80;99.90;;;;;;5121662;28;20054;-91
2023/03/02 02:10:11;;;;;;;42.55;25.13;;;2.80;99.90;;;;;;5068294;28;20431;-95
2023/03/02 02:12:38;;;;;;;46.10;25.73;;;2.80;99.90;;;;;;5093272;28;20046;-91
2023/03/02 02:15:05;;;;;;;45.17;25.58;;;2.80;99.90;;;;;;5087034;28;20063;-90
2023/03/02 02:17:31;;;;;;;42.85;24.75;;;2.70;99.90;;;;;;5119552;28;20051;-93
2023/03/02 02:20:18;;;;;;;43.85;24.70;;;2.70;99.90;;;;;;5070412;28;20031;-93
2023/03/02 02:23:14;;;;;;;46.22;26.17;;;2.70;99.90;;;;;;5085630;28;20521;-91
2023/03/02 02:25:52;;;;;;;52.25;27.65;;;2.70;99.90;;;;;;5079442;28;20125;-93
2023/03/02 02:28:26;;;;;;;47.70;26.63;;;2.80;99.90;;;;;;5115084;28;20604;-92
2023/03/02 02:31:09;;;;;;;51.47;28.27;;;2.70;99.90;;;;;;5104151;28;20132;-92
2023/03/02 02:33:36;;;;;;;50.63;26.75;;;2.60;99.90;;;;;;5111616;28;20046;-93
2023/03/02 02:36:06;;;;;;;47.85;26.90;;;2.80;99.90;;;;;;5074366;28;20043;-92
2023/03/02 02:38:33;;;;;;;45.63;25.45;;;1.70;99.90;;;;;;5077969;28;20047;-93
2023/03/02 02:41:06;;;;;;;49.78;26.90;;;2.60;99.90;;;;;;5090300;28;20046;-92
2023/03/02 02:43:33;;;;;;;50.35;27.67;;;2.60;99.90;;;;;;5107647;28;20085;-92
2023/03/02 02:45:59;;;;;;;51.28;27.73;;;2.80;99.90;;;;;;5101983;28;20100;-92
2023/03/02 02:48:29;;;;;;;50.20;27.23;;;2.50;99.90;;;;;;5089246;28;20107;-91
2023/03/02 02:51:01;;;;;;;48.65;27.70;;;2.50;99.90;;;;;;5088656;28;20071;-92
2023/03/02 02:53:57;;;;;;;42.33;24.88;;;3.40;99.90;;;;;;5121173;28;20044;-93
2023/03/02 02:56:26;;;;;;;49.17;27.67;;;2.50;99.90;;;;;;5093219;28;20080;-95
2023/03/02 02:58:54;;;;;;;49.85;28.48;;;2.50;99.90;;;;;;5090281;27;20491;-94
2023/03/02 03:01:26;;;;;;;49.65;28.35;;;2.40;99.90;;;;;;5094783;28;20050;-93
2023/03/02 03:03:59;;;;;;;54.67;28.88;;;2.50;99.90;;;;;;5082912;27;20059;-92
2023/03/02 03:06:29;;;;;;;54.53;28.45;;;2.40;99.90;;;;;;5111117;27;20494;-93
2023/03/02 03:08:58;;;;;;;54.75;28.55;;;3.60;99.90;;;;;;5109706;27;20040;-91
2023/03/02 03:11:30;;;;;;;53.15;29.05;;;2.40;99.90;;;;;;5100762;28;20040;-92
2023/03/02 03:14:09;;;;;;;50.13;29.20;;;2.40;99.90;;;;;;5105031;28;20044;-92
2023/03/02 03:16:38;;;;;;;56.10;29.63;;;2.40;99.90;;;;;;5096022;28;20055;-93
2023/03/02 03:19:17;;;;;;;52.78;28.77;;;2.40;99.90;;;;;;5092901;28;20096;-93
2023/03/02 03:21:43;;;;;;;54.60;30.05;;;2.40;99.90;;;;;;5135163;27;20044;-92
2023/03/02 03:24:09;;;;;;;58.67;28.95;;;2.40;99.90;;;;;;5106038;28;20157;-91
2023/03/02 03:26:35;;;;;;;52.33;28.00;;;2.40;99.90;;;;;;5105747;28;20130;-92
2023/03/02 03:29:02;;;;;;;56.60;28.92;;;2.40;99.90;;;;;;5059540;28;20044;-92
2023/03/02 03:31:28;;;;;;;51.20;28.80;;;2.90;99.90;;;;;;5086210;28;20082;-92
2023/03/02 03:33:54;;;;;;;43.63;25.70;;;2.70;99.90;;;;;;5087575;28;20336;-92
2023/03/02 03:36:21;;;;;;;51.72;26.40;;;2.30;99.90;;;;;;5106679;28;20526;-91
2023/03/02 03:38:47;;;;;;;48.72;26.60;;;2.80;99.90;;;;;;5106561;28;20095;-93
2023/03/02 03:41:14;;;;;;;49.10;26.75;;;2.40;99.90;;;;;;5104586;28;20078;-92
2023/03/02 03:43:41;;;;;;;47.42;26.30;;;2.70;99.90;;;;;;5105502;27;20096;-93
2023/03/02 03:46:07;;;;;;;49.55;28.15;;;2.20;99.90;;;;;;5081371;28;20376;-93
2023/03/02 03:48:35;;;;;;;52.63;26.92;;;2.10;99.90;;;;;;5072368;28;20055;-94
2023/03/02 03:51:00;;;;;;;52.67;26.75;;;2.10;99.90;;;;;;5072499;28;20035;-92
2023/03/02 03:53:27;;;;;;;51.10;26.33;;;2.10;99.90;;;;;;5105790;28;20049;-93
2023/03/02 03:55:59;;;;;;;49.97;26.83;;;2.10;99.90;;;;;;5089306;28;20051;-91
2023/03/02 03:58:26;;;;;;;51.10;27.40;;;2.30;99.90;;;;;;5105066;28;20048;-92
2023/03/02 04:00:52;;;;;;;50.05;27.52;;;2.10;99.90;;;;;;5092829;27;20048;-92
2023/03/02 04:03:19;;;;;;;55.55;29.13;;;3.00;99.90;;;;;;5088579;28;20050;-94
2023/03/02 04:05:45;;;;;;;47.88;25.75;;;2.10;99.90;;;;;;5105763;28;20040;-92
2023/03/02 04:08:12;;;;;;;40.97;21.35;;;2.10;99.90;;;;;;5112920;27;20042;-94
2023/03/02 04:10:39;;;;;;;44.13;23.45;;;2.10;99.90;;;;;;5084598;27;20039;-93
2023/03/02 04:13:05;;;;;;;44.80;24.58;;;2.10;99.90;;;;;;5108421;27;20040;-94
2023/03/02 04:15:31;;;;;;;45.67;25.23;;;2.10;99.90;;;;;;5057871;28;20117;-91
2023/03/02 04:17:56;;;;;;;44.67;24.40;;;2.60;99.90;;;;;;5107032;27;20035;-94
2023/03/02 04:20:23;;;;;;;46.40;25.35;;;2.10;99.90;;;;;;5078950;28;20035;-94
2023/03/02 04:22:51;;;;;;;49.78;26.17;;;2.60;99.90;;;;;;5104854;27;20103;-92
2023/03/02 04:25:20;;;;;;;49.40;25.13;;;2.10;99.90;;;;;;5089405;28;20103;-92
2023/03/02 04:27:47;;;;;;;50.47;25.30;;;2.10;99.90;;;;;;5092055;28;20035;-92
2023/03/02 04:30:15;;;;;;;47.22;25.77;;;3.40;99.90;;;;;;5109788;28;20040;-92
2023/03/02 04:32:42;;;;;;;47.90;24.55;;;2.00;99.90;;;;;;5115515;27;20043;-91
2023/03/02 04:35:09;;;;;;;43.30;24.55;;;2.00;99.90;;;;;;5075079;27;20045;-92
2023/03/02 04:37:36;;;;;;;45.95;24.67;;;2.20;99.90;;;;;;5110581;27;20124;-93
2023/03/02 04:40:03;;;;;;;47.50;24.67;;;2.40;99.90;;;;;;5088397;27;20099;-92
2023/03/02 04:42:29;;;;;;;44.75;23.33;;;2.10;99.90;;;;;;5087906;27;20063;-93
2023/03/02 04:44:54;;;;;;;42.88;22.88;;;2.70;99.90;;;;;;5073712;27;20050;-95
2023/03/02 04:47:20;;;;;;;37.55;20.08;;;2.60;99.90;;;;;;5109132;27;20035;-92
2023/03/02 04:49:48;;;;;;;39.10;20.50;;;2.00;99.90;;;;;;5072766;28;20050;-93
2023/03/02 04:52:14;;;;;;;39.25;22.08;;;3.50;99.90;;;;;;5121775;28;20707;-92
2023/03/02 04:54:40;;;;;;;42.60;22.42;;;1.90;99.90;;;;;;5070705;28;20047;-92
2023/03/02 04:57:07;;;;;;;39.63;21.50;;;2.30;99.90;;;;;;5087353;28;20051;-94
2023/03/02 04:59:33;;;;;;;39.80;20.15;;;1.90;99.90;;;;;;5112547;28;20040;-92
2023/03/02 05:02:00;;;;;;;37.67;20.23;;;1.90;99.90;;;;;;5080205;28;20045;-94
2023/03/02 05:04:27;;;;;;;41.47;20.98;;;1.90;99.90;;;;;;5105264;27;20043;-93
2023/03/02 05:06:53;;;;;;;40.40;21.02;;;1.80;99.90;;;;;;5104356;27;20418;-93
2023/03/02 05:09:19;;;;;;;39.50;20.77;;;1.80;99.90;;;;;;5106935;27;20121;-92
2023/03/02 05:11:45;;;;;;;39.80;20.02;;;1.80;99.90;;;;;;5107912;27;20043;-90
2023/03/02 05:14:11;;;;;;;37.75;20.90;;;1.80;99.90;;;;;;5090598;27;20321;-92
2023/03/02 05:16:39;;;;;;;38.30;20.15;;;1.80;99.90;;;;;;5099001;28;20048;-91
2023/03/02 05:19:08;;;;;;;38.35;20.58;;;1.90;99.90;;;;;;5102788;27;20403;-91
2023/03/02 05:21:34;;;;;;;39.10;20.38;;;1.80;99.90;;;;;;5106933;27;20047;-93
2023/03/02 05:24:00;;;;;;;37.47;21.15;;;1.80;99.90;;;;;;5102068;28;20035;-93
2023/03/02 05:26:31;;;;;;;38.88;20.17;;;1.80;99.90;;;;;;5084033;28;20121;-91
2023/03/02 05:28:57;;;;;;;40.78;21.75;;;1.80;99.90;;;;;;5075950;28;20036;-93
2023/03/02 05:31:28;;;;;;;39.83;21.35;;;1.80;99.90;;;;;;5080753;28;20407;-91
2023/03/02 05:33:54;;;;;;;41.20;22.38;;;3.00;99.90;;;;;;5104044;28;20044;-92
2023/03/02 05:36:20;;;;;;;39.65;21.02;;;2.00;99.90;;;;;;5114814;28;20059;-95
2023/03/02 05:38:46;;;;;;;36.08;19.40;;;1.80;99.90;;;;;;5087183;28;20044;-93
2023/03/02 05:41:11;;;;;;;38.65;20.75;;;2.10;99.90;;;;;;5069950;28;20088;-93
2023/03/02 05:43:37;;;;;;;36.47;20.65;;;2.40;99.90;;;;;;5070282;28;20051;-93
2023/03/02 05:46:03;;;;;;;37.53;20.73;;;1.80;99.90;;;;;;5070930;28;20369;-93
2023/03/02 05:48:30;;;;;;;41.05;22.05;;;1.80;99.90;;;;;;5090289;28;20046;-91
2023/03/02 05:50:56;;;;;;;38.70;21.98;;;1.70;99.90;;;;;;5106345;28;20038;-95
2023/03/02 05:53:23;;;;;;;52.25;22.30;;;1.70;99.90;;;;;;5079000;28;20061;-92
2023/03/02 05:55:49;;;;;;;51.28;24.15;;;3.50;99.90;;;;;;5098295;28;20065;-91
2023/03/02 05:58:17;;;;;;;44.03;22.05;;;1.70;99.90;;;;;;5127130;28;20028;-93
2023/03/02 06:00:44;;;;;;;53.83;24.17;;;3.10;99.90;;;;;;5049973;28;20059;-93
2023/03/02 06:03:10;;;;;;;54.85;25.50;;;2.00;99.90;;;;;;5043507;28;20048;-93
2023/03/02 06:05:36;;;;;;;53.65;24.23;;;1.60;99.90;;;;;;5056563;28;20045;-91
2023/03/02 06:08:03;;;;;;;47.78;23.77;;;2.70;99.90;;;;;;5065374;28;20045;-91
2023/03/02 06:10:29;;;;;;;50.85;24.10;;;1.60;99.90;;;;;;5063049;28;20080;-91
2023/03/02 06:12:55;;;;;;;47.92;24.13;;;1.60;99.90;;;;;;5065451;28;20072;-94
2023/03/02 06:15:21;;;;;;;48.85;23.65;;;2.60;99.90;;;;;;5086067;28;20070;-93
2023/03/02 06:17:47;;;;;;;45.28;23.40;;;1.90;99.90;;;;;;5076346;28;20036;-94
2023/03/02 06:20:14;;;;;;;50.53;24.60;;;2.40;99.90;;;;;;5032210;28;20041;-94
2023/03/02 06:22:45;;;;;;;55.95;23.25;;;1.90;99.90;;;;;;5037067;28;20040;-90
2023/03/02 06:25:13;;;;;;;52.70;22.88;;;1.70;99.90;;;;;;5085605;28;20040;-93
2023/03/02 06:27:39;;;;;;;56.15;22.73;;;1.60;99.90;;;;;;5062118;28;20036;-91
2023/03/02 06:30:06;;;;;;;51.13;22.38;;;3.00;99.90;;;;;;5065865;28;20361;-93
2023/03/02 06:32:34;;;;;;;51.22;21.52;;;1.60;99.90;;;;;;5086829;28;20040;-90
2023/03/02 06:35:00;;;;;;;54.60;23.88;;;1.60;99.90;;;;;;5083108;27;20061;-93
2023/03/02 06:37:28;;;;;;;48.45;22.50;;;1.70;99.90;;;;;;5108527;27;20058;-92
2023/03/02 06:39:55;;;;;;;39.03;19.58;;;1.60;99.90;;;;;;5095121;27;20036;-91
2023/03/02 06:42:22;;;;;;;50.38;22.05;;;1.60;99.90;;;;;;5108660;27;20059;-90
2023/03/02 06:44:48;;;;;;;46.10;21.60;;;2.20;99.90;;;;;;5073307;28;20040;-92
2023/03/02 06:47:14;;;;;;;47.38;23.02;;;1.60;99.90;;;;;;5082362;28;20067;-89
2023/03/02 06:49:40;;;;;;;44.92;23.02;;;1.60;99.90;;;;;;5089626;27;20058;-93
2023/03/02 06:52:06;;;;;;;45.72;21.95;;;1.60;99.90;;;;;;5107241;28;20096;-92
2023/03/02 06:54:32;;;;;;;53.30;23.42;;;1.60;99.90;;;;;;5074147;27;20348;-92
2023/03/02 06:56:58;;;;;;;59.38;25.77;;;1.60;99.90;;;;;;5091150;28;20039;-92
2023/03/02 06:59:24;;;;;;;56.28;23.40;;;2.00;99.90;;;;;;5085975;27;20118;-92
2023/03/02 07:01:53;;;;;;;49.00;23.33;;;1.70;99.90;;;;;;5077197;28;20047;-92
2023/03/02 07:04:19;;;;;;;59.22;24.58;;;1.70;99.90;;;;;;5090772;28;20051;-90
2023/03/02 07:06:45;;;;;;;60.28;25.73;;;2.10;99.90;;;;;;5100914;28;20399;-90
2023/03/02 07:09:10;;;;;;;55.20;24.00;;;1.70;99.90;;;;;;5106818;28;20054;-92
2023/03/02 07:11:36;;;;;;;55.05;23.38;;;1.70;99.90;;;;;;5052220;28;20040;-93
2023/03/02 07:14:02;;;;;;;49.05;22.67;;;1.80;99.90;;;;;;5101576;28;20502;-92
2023/03/02 07:16:29;;;;;;;79.32;25.65;;;1.70;99.90;;;;;;5063951;27;20138;-92
2023/03/02 07:18:55;;;;;;;56.25;22.63;;;3.10;99.90;;;;;;5076348;28;20065;-92
2023/03/02 07:21:21;;;;;;;53.80;25.15;;;1.60;99.90;;;;;;5070761;28;20257;-91
2023/03/02 07:23:47;;;;;;;57.03;24.08;;;1.60;99.90;;;;;;5086745;28;20069;-91
2023/03/02 07:26:12;;;;;;;52.13;24.20;;;1.90;99.90;;;;;;5085929;28;20548;-91
2023/03/02 07:28:40;;;;;;;60.88;25.58;;;2.00;99.90;;;;;;5106388;27;20067;-91
2023/03/02 07:31:07;;;;;;;65.65;24.30;;;1.90;99.90;;;;;;5090367;27;20044;-94
2023/03/02 07:33:33;;;;;;;57.30;25.88;;;1.60;99.90;;;;;;5090778;28;20497;-92
2023/03/02 07:35:59;;;;;;;56.78;23.70;;;1.90;99.90;;;;;;5109583;28;20049;-91
2023/03/02 07:38:25;;;;;;;64.70;25.40;;;2.10;99.90;;;;;;5104016;28;20524;-92
2023/03/02 07:40:51;;;;;;;61.33;24.95;;;1.60;99.90;;;;;;5107976;27;20039;-94
2023/03/02 07:43:17;;;;;;;59.40;25.10;;;2.00;99.90;;;;;;5077339;28;20056;-92
2023/03/02 07:45:43;;;;;;;60.22;23.98;;;2.70;99.90;;;;;;5115929;27;20107;-92
2023/03/02 07:48:09;;;;;;;66.00;25.98;;;1.70;99.90;;;;;;5090227;27;20038;-92
2023/03/02 07:50:35;;;;;;;68.60;25.90;;;1.70;99.90;;;;;;5100457;28;20036;-93
2023/03/02 07:53:00;;;;;;;55.65;23.70;;;2.70;99.90;;;;;;5077057;27;20046;-93
2023/03/02 07:55:27;;;;;;;60.42;25.52;;;2.90;99.90;;;;;;5109541;27;20065;-93
2023/03/02 07:57:53;;;;;;;65.55;25.25;;;2.20;99.90;;;;;;5072673;27;20122;-94
2023/03/02 08:00:19;;;;;;;63.40;25.13;;;1.70;99.90;;;;;;5099708;27;20035;-93
2023/03/02 08:02:45;;;;;;;70.45;25.10;;;1.70;99.90;;;;;;5068993;28;20564;-93
2023/03/02 08:05:11;;;;;;;61.90;25.25;;;1.80;99.90;;;;;;5090700;28;20103;-92
2023/03/02 08:07:37;;;;;;;56.20;24.65;;;2.10;99.90;;;;;;5070642;28;20050;-92
2023/03/02 08:10:04;;;;;;;55.70;24.98;;;2.00;99.90;;;;;;5109903;27;20094;-93
2023/03/02 08:12:30;;;;;;;54.70;24.10;;;1.80;99.90;;;;;;5092490;27;20043;-92
2023/03/02 08:14:56;;;;;;;60.05;25.45;;;2.20;99.90;;;;;;5089669;27;20070;-93
2023/03/02 08:17:22;;;;;;;59.75;25.15;;;2.80;99.90;;;;;;5089179;28;20072;-92
2023/03/02 08:19:48;;;;;;;62.70;25.95;;;3.30;99.90;;;;;;5087944;28;20032;-93
2023/03/02 08:22:15;;;;;;;57.28;25.27;;;2.70;99.90;;;;;;5094269;27;20040;-93
2023/03/02 08:24:41;;;;;;;65.00;26.05;;;1.90;99.90;;;;;;5087330;28;20051;-92
2023/03/02 08:27:10;;;;;;;49.50;22.77;;;2.00;99.90;;;;;;5089956;28;20044;-91
2023/03/02 08:29:36;;;;;;;55.92;24.25;;;2.00;99.90;;;;;;5108565;28;20169;-92
2023/03/02 08:32:02;;;;;;;62.15;25.20;;;2.00;99.90;;;;;;5071870;28;20044;-94
2023/03/02 08:34:28;;;;;;;61.13;25.27;;;2.00;99.90;;;;;;5073803;27;20046;-94
2023/03/02 08:36:54;;;;;;;55.67;24.08;;;2.00;99.90;;;;;;5071600;28;20043;-94
2023/03/02 08:39:21;;;;;;;61.28;25.02;;;2.10;99.90;;;;;;5122532;28;20069;-95
2023/03/02 08:41:52;;;;;;;54.20;23.92;;;2.10;99.90;;;;;;5081135;28;20084;-93
2023/03/02 08:44:20;;;;;;;57.25;25.40;;;2.10;99.90;;;;;;5096895;27;20047;-94
2023/03/02 08:46:47;;;;;;;52.88;22.98;;;3.10;99.90;;;;;;5125775;27;20035;-94
2023/03/02 08:49:13;;;;;;;50.90;23.35;;;2.10;99.90;;;;;;5095064;28;20035;-94
2023/03/02 08:51:39;;;;;;;49.83;23.30;;;2.70;99.90;;;;;;5061548;27;20038;-94
2023/03/02 08:54:06;;;;;;;52.85;23.55;;;2.30;99.90;;;;;;5123941;27;20035;-95
2023/03/02 08:56:34;;;;;;;52.40;24.08;;;2.10;99.90;;;;;;5092247;27;20042;-93
2023/03/02 08:59:03;;;;;;;58.15;24.75;;;2.60;99.90;;;;;;5107873;27;20041;-94
2023/03/02 09:01:31;;;;;;;61.65;28.50;;;2.30;99.90;;;;;;5109476;28;20043;-93
2023/03/02 09:03:59;;;;;;;60.38;28.63;;;2.20;99.90;;;;;;5100168;28;20036;-94
2023/03/02 09:06:26;;;;;;;76.88;38.67;;;2.30;99.90;;;;;;5112438;27;20107;-93
2023/03/02 09:08:52;;;;;;;78.40;38.70;;;2.30;99.90;;;;;;5082351;28;20039;-94
2023/03/02 09:11:18;;;;;;;59.40;27.45;;;2.80;99.90;;;;;;5067998;28;20984;-94
2023/03/02 09:13:44;;;;;;;58.40;27.55;;;2.50;99.90;;;;;;5101122;28;20047;-93
2023/03/02 09:16:10;;;;;;;59.67;29.38;;;2.40;99.90;;;;;;5105171;28;20077;-94
2023/03/02 09:18:36;;;;;;;64.68;29.05;;;2.40;99.90;;;;;;5096100;28;20040;-92
2023/03/02 09:21:03;;;;;;;52.25;24.67;;;2.50;99.90;;;;;;5118860;28;20038;-94
2023/03/02 09:23:31;;;;;;;59.50;25.30;;;2.50;99.90;;;;;;5116366;27;20048;-92
2023/03/02 09:25:57;;;;;;;55.38;26.00;;;2.60;99.90;;;;;;5097851;27;20074;-94
2023/03/02 09:28:23;;;;;;;53.13;25.35;;;2.60;99.90;;;;;;5075763;28;20040;-95
2023/03/02 09:31:01;;;;;;;53.70;24.02;;;2.70;99.90;;;;;;5096102;28;20084;-94
2023/03/02 09:33:28;;;;;;;52.55;24.30;;;2.70;99.90;;;;;;5097136;28;20032;-95
2023/03/02 09:35:53;;;;;;;50.80;24.60;;;2.80;99.90;;;;;;5129440;28;20037;-95
2023/03/02 09:38:21;;;;;;;44.78;22.48;;;2.80;99.90;;;;;;5095926;28;20036;-96
2023/03/02 09:40:55;;;;;;;45.85;23.02;;;3.50;99.90;;;;;;5122525;28;20031;-94
2023/03/02 09:44:13;;;;;;;43.15;22.63;;;3.00;99.90;;;;;;5080785;28;20048;-94
2023/03/02 09:47:08;;;;;;;39.47;21.45;;;3.10;99.90;;;;;;5036495;28;20108;-95
2023/03/02 09:50:20;;;;;;;39.67;21.77;;;3.20;99.90;;;;;;5029788;28;20037;-96
2023/03/02 09:53:00;;;;;;;32.78;18.48;;;3.20;99.90;;;;;;5090927;28;20043;-94
2023/03/02 09:55:30;;;;;;;36.85;20.33;;;3.20;99.90;;;;;;5081359;28;20046;-94
2023/03/02 09:57:56;;;;;;;35.75;20.45;;;4.40;99.90;;;;;;5094306;28;20065;-94
2023/03/02 10:00:34;;;;;;;36.42;19.90;;;4.10;99.90;;;;;;5121488;28;20092;-95
2023/03/02 10:03:06;;;;;;;35.35;20.77;;;3.50;99.90;;;;;;5117384;28;20051;-96
2023/03/02 10:05:52;;;;;;;35.58;20.33;;;3.60;99.90;;;;;;5100927;28;20064;-94
2023/03/02 10:08:27;;;;;;;35.63;21.33;;;3.70;99.90;;;;;;5093081;28;20051;-95
2023/03/02 10:11:02;;;;;;;35.00;20.27;;;3.70;99.90;;;;;;5090754;28;20047;-95
2023/03/02 10:13:46;;;;;;;34.60;19.83;;;4.10;99.90;;;;;;5085862;28;20046;-95
2023/03/02 10:16:44;;;;;;;34.65;21.92;;;3.80;99.90;;;;;;5081841;28;20305;-95
2023/03/02 10:19:32;;;;;;;33.85;20.92;;;3.80;99.90;;;;;;5107988;28;20081;-96
2023/03/02 10:22:12;;;;;;;38.47;20.90;;;3.90;99.90;;;;;;5097597;28;20023;-96
2023/03/02 10:24:49;;;;;;;34.33;20.33;;;3.90;99.90;;;;;;5111696;28;20040;-96
2023/03/02 10:27:25;;;;;;;33.95;19.95;;;4.40;99.90;;;;;;5105264;28;20032;-95
2023/03/02 10:30:00;;;;;;;34.80;20.60;;;4.20;99.90;;;;;;5091648;28;20044;-96
2023/03/02 10:32:34;;;;;;;31.38;19.38;;;4.30;99.90;;;;;;5110801;28;20075;-94
2023/03/02 10:35:09;;;;;;;31.90;17.48;;;4.40;99.90;;;;;;5096995;28;20582;-95
2023/03/02 10:37:35;;;;;;;33.63;18.90;;;4.50;99.90;;;;;;5073521;28;20123;-95
2023/03/02 10:40:01;;;;;;;34.10;20.33;;;4.60;99.90;;;;;;5095635;28;20044;-95
2023/03/02 10:42:39;;;;;;;32.60;19.33;;;5.00;99.90;;;;;;5119658;28;20099;-95
2023/03/02 10:45:24;;;;;;;29.38;15.90;;;4.90;99.90;;;;;;5097601;28;20048;-95
2023/03/02 10:48:08;;;;;;;28.70;18.23;;;5.50;99.90;;;;;;5111700;28;20039;-96
2023/03/02 10:50:35;;;;;;;28.60;16.58;;;5.80;99.90;;;;;;5100554;28;20043;-96
2023/03/02 10:53:01;;;;;;;29.23;17.73;;;6.20;99.90;;;;;;5102741;28;20047;-95
2023/03/02 10:55:34;;;;;;;30.40;18.30;;;6.40;99.90;;;;;;5090032;28;20062;-95
2023/03/02 10:58:24;;;;;;;31.40;19.20;;;6.30;99.90;;;;;;5104377;28;20046;-96
2023/03/02 11:01:03;;;;;;;28.90;18.15;;;6.10;99.90;;;;;;5117991;28;20082;-96
2023/03/02 11:03:30;;;;;;;31.65;20.35;;;6.10;99.90;;;;;;5119085;28;20064;-95
2023/03/02 11:05:57;;;;;;;28.52;18.23;;;5.90;99.90;;;;;;5100904;27;20035;-96
2023/03/02 11:08:26;;;;;;;30.60;20.38;;;6.20;99.90;;;;;;5107285;27;20074;-96
2023/03/02 11:11:02;;;;;;;27.23;17.65;;;6.20;99.90;;;;;;5100159;28;20055;-95
2023/03/02 11:13:33;;;;;;;30.35;19.00;;;6.10;99.90;;;;;;5114431;28;20055;-96
2023/03/02 11:16:01;;;;;;;30.42;18.92;;;5.90;99.90;;;;;;5084956;28;20073;-96
2023/03/02 11:18:32;;;;;;;30.58;19.05;;;5.80;99.90;;;;;;5081854;28;20050;-96
2023/03/02 11:21:07;;;;;;;27.55;17.90;;;6.00;99.90;;;;;;5090939;27;20131;-96
2023/03/02 11:23:56;;;;;;;28.83;16.98;;;6.30;99.90;;;;;;5079719;28;20073;-96
2023/03/02 11:26:27;;;;;;;27.52;18.88;;;6.90;99.90;;;;;;5112229;28;20040;-96
2023/03/02 11:29:11;;;;;;;28.20;18.80;;;7.50;99.90;;;;;;5114240;28;20043;-96
2023/03/02 11:31:46;;;;;;;30.23;18.73;;;9.00;99.90;;;;;;5087498;28;20032;-96
2023/03/02 11:34:39;;;;;;;25.27;17.83;;;7.50;99.90;;;;;;5100469;27;20057;-95
2023/03/02 11:37:33;;;;;;;29.25;18.80;;;7.60;99.90;;;;;;5144198;27;20080;-95
2023/03/02 11:40:17;;;;;;;25.92;15.98;;;7.60;99.90;;;;;;5128411;28;20024;-94
2023/03/02 11:42:45;;;;;;;27.02;17.73;;;7.60;99.90;;;;;;5112641;28;20116;-94
2023/03/02 11:45:16;;;;;;;24.30;15.38;;;7.50;99.90;;;;;;5125385;27;20019;-96
2023/03/02 11:48:06;;;;;;;25.90;17.52;;;7.50;99.90;;;;;;5126039;27;20274;-95
2023/03/02 11:50:39;;;;;;;25.10;17.45;;;7.50;99.90;;;;;;5103844;28;20039;-96
2023/03/02 11:53:10;;;;;;;24.05;16.35;;;7.60;99.90;;;;;;5080213;28;20041;-96
2023/03/02 11:55:43;;;;;;;25.17;16.75;;;7.80;99.90;;;;;;5061551;28;20531;-95
2023/03/02 11:58:21;;;;;;;25.67;17.27;;;8.20;99.90;;;;;;5059708;28;20611;-95
2023/03/02 12:00:47;;;;;;;23.70;15.20;;;8.80;99.90;;;;;;5057236;28;20044;-95
2023/03/02 12:03:16;;;;;;;24.55;17.35;;;9.60;99.90;;;;;;5059255;28;20048;-94
2023/03/02 12:05:58;;;;;;;24.75;16.95;;;10.00;99.90;;;;;;5052488;28;20036;-95
2023/03/02 12:08:23;;;;;;;19.15;14.13;;;10.20;99.90;;;;;;5059400;28;20087;-95
2023/03/02 12:10:55;;;;;;;23.60;16.17;;;10.30;99.90;;;;;;5061875;28;20058;-96
2023/03/02 12:13:43;;;;;;;23.63;16.60;;;10.20;99.90;;;;;;5079015;28;20086;-94
2023/03/02 12:16:38;;;;;;;22.88;15.82;;;10.00;99.90;;;;;;5097520;28;20056;-96
2023/03/02 12:19:12;;;;;;;22.83;16.67;;;10.10;99.90;;;;;;5061264;28;20215;-95
2023/03/02 12:21:41;;;;;;;23.55;16.60;;;9.90;99.90;;;;;;5066371;28;20167;-96
2023/03/02 12:24:26;;;;;;;23.98;16.65;;;9.80;99.90;;;;;;5098156;28;20055;-96
2023/03/02 12:27:15;;;;;;;22.75;14.40;;;9.80;99.90;;;;;;5097060;28;20095;-95
2023/03/02 12:29:48;;;;;;;25.67;16.50;;;9.70;99.90;;;;;;5110004;28;20048;-95
2023/03/02 12:32:25;;;;;;;25.52;17.70;;;9.20;99.90;;;;;;5082918;28;20036;-96
2023/03/02 12:34:57;;;;;;;21.83;16.23;;;9.00;99.90;;;;;;5085124;28;20035;-96
2023/03/02 12:37:52;;;;;;;21.65;15.57;;;8.90;99.90;;;;;;5109778;28;20117;-96
2023/03/02 12:40:52;;;;;;;23.27;16.00;;;9.30;99.90;;;;;;5091222;27;20044;-95
2023/03/02 12:43:35;;;;;;;23.35;16.73;;;9.80;99.90;;;;;;5083360;28;20051;-96
2023/03/02 12:46:30;;;;;;;23.08;16.88;;;10.00;99.90;;;;;;5087288;27;20043;-94
2023/03/02 12:49:26;;;;;;;22.40;16.77;;;10.00;99.90;;;;;;5113640;28;20028;-96
2023/03/02 12:52:17;;;;;;;25.30;16.05;;;9.90;99.90;;;;;;5097179;28;20043;-96